Terminal Aerodrome Forecast
Issued by NWS

Home | Current Version | Previous Version | Text Only | Print | Product List | Glossary On
Versions: 1 2 3 4 5 6 7 8 9 10 11 12 13 14
000
FTAK31 PAJN 231100
TAFASI
TAF
PASI 231120Z 2312/2412 VRB03KT P6SM SCT050 OVC100
     FM231400 10005KT P6SM VCSH SCT025 OVC045
     FM231800 12006KT P6SM -SHRA BKN025 OVC040
     FM240000 11005KT P6SM VCSH SCT025 BKN050=

USA.gov is the U.S. government's official web portal to all federal, state and local government web resources and services.